Ever Develop — 3FLF8 — position and weather

sailwx.info

Track history (hours):
 
Tides and Currents Weather Stations Pressure Air Temp Water Temp Dewpoint Dewpoint Depression Visibility Wind Speed Wind Dir Waves Ship Positions

Ever Develop

Last reported at 2015-May-18 06:33 UTC. Time now 2015-May-25 13:26 UTC.
Position N 30°30' E 122°35'.

Type: Ship (hazmat cat D). MMSI: 356391000.

Date/timePositionNaut miles runAvg speedWind from/ knotsBaromVisibWave heightAir tempDewpointWater temp
2015-May-18 06:33N 30°30' E 122°35'1514.6
2015-May-18 05:33N 30°33' E 122°18'1212.5
2015-May-18 04:33N 30°37' E 122°04'0 0.2
2015-May-18 03:32N 30°37' E 122°04'0 0.0
2015-May-18 02:32N 30°37' E 122°04'0 0.0
2015-May-18 00:32N 30°37' E 122°04'0 0.0
2015-May-17 23:32N 30°37' E 122°04'0 0.0
2015-May-17 22:32N 30°37' E 122°04'0 0.0
2015-May-17 21:32N 30°37' E 122°04'0 0.0
2015-May-17 20:32N 30°37' E 122°04'0 0.0
2015-May-17 19:29N 30°37' E 122°04'0 0.0
2015-May-17 18:17N 30°37' E 122°04'0 0.0
2015-May-17 17:32N 30°37' E 122°04'0 0.0
2015-May-17 16:32N 30°37' E 122°04'0 0.1
2015-May-17 15:33N 30°37' E 122°04'8 8.0
2015-May-17 14:33N 30°34' E 122°13'8 7.9
2015-May-17 13:33N 30°33' E 122°22'11 3.4
2015-May-17 10:25N 30°28' E 122°33'0 0.2
2015-May-17 09:31N 30°28' E 122°33'0 0.0
2015-May-17 08:16N 30°28' E 122°34'0 0.0
2015-May-17 06:16N 30°28' E 122°34'0 0.0
2015-May-17 05:19N 30°28' E 122°34'0 0.2
2015-May-17 04:22N 30°28' E 122°34'0 0.2
2015-May-17 03:28N 30°28' E 122°33'0 0.1
2015-May-17 02:28N 30°28' E 122°33'0 0.0
2015-May-17 01:22N 30°28' E 122°33'0 0.0
2015-May-17 00:28N 30°28' E 122°33'0 0.1
2015-May-16 23:28N 30°28' E 122°33'0 0.2
2015-May-16 22:25N 30°28' E 122°33'0 0.2
2015-May-16 21:31N 30°28' E 122°34'4 4.6
2015-May-16 20:33N 30°27' E 122°39'1212.3
2015-May-16 19:33N 30°23' E 122°52'1312.7
2015-May-16 18:33N 30°15' E 123°04'1312.7
2015-May-16 17:33N 30°03' E 122°59'1514.2
2015-May-16 16:31N 29°53' E 122°47'1313.7
2015-May-16 15:33N 29°42' E 122°38'1414.3
2015-May-16 14:33N 29°43' E 122°21'1212.0
2015-May-16 13:33N 29°52' E 122°11'8 8.3
2015-May-16 12:33N 29°54' E 122°02'0 0.1
2015-May-16 11:32N 29°54' E 122°02'0 0.0
2015-May-16 10:20N 29°54' E 122°02'0 0.0
2015-May-16 09:20N 29°54' E 122°02'0 0.0
2015-May-16 08:08N 29°54' E 122°02'0 0.0
2015-May-16 07:32N 29°54' E 122°02'0 0.0
2015-May-16 05:14N 29°54' E 122°02'0 0.0
2015-May-16 04:26N 29°54' E 122°02'0 0.0
2015-May-16 03:26N 29°54' E 122°02'2 1.7
2015-May-16 02:33N 29°54' E 122°04'9 8.9
2015-May-16 01:33N 29°50' E 122°13'1111.5
2015-May-16 00:33N 29°43' E 122°23'4 0.9
2015-May-15 20:29N 29°39' E 122°24'0 0.0
2015-May-15 18:23N 29°39' E 122°24'2 0.4
2015-May-15 13:33N 29°37' E 122°24'1414.3
2015-May-15 12:33N 29°24' E 122°31'28015.2
2015-May-14 18:08N 25°12' E 120°14'1015.9
2015-May-14 17:31N 25°05' E 120°07'1616.0
2015-May-14 16:30N 24°53' E 119°55'1715.7
2015-May-14 15:24N 24°41' E 119°41'1315.3
2015-May-14 14:33N 24°32' E 119°31'1515.3
2015-May-14 13:33N 24°21' E 119°19'1614.7
2015-May-14 12:29N 24°10' E 119°07'1415.0
2015-May-14 11:33N 24°00' E 118°56'1615.3
2015-May-14 10:31N 23°50' E 118°43'1515.5
2015-May-14 09:33N 23°41' E 118°30'1615.6
2015-May-14 08:33N 23°32' E 118°15'8014.6
2015-May-14 03:05N 22°45' E 117°05'2514.5
2015-May-14 01:23N 22°37' E 116°40'11414.3
2015-May-13 17:24N 22°21' E 114°37'2212.1
2015-May-13 15:33N 22°34' E 114°17'2 1.4
2015-May-13 14:20N 22°34' E 114°16'0 0.0
2015-May-13 13:25N 22°34' E 114°16'0 0.1
2015-May-13 12:31N 22°34' E 114°16'0 0.0
2015-May-13 11:07N 22°34' E 114°16'0 0.0
2015-May-13 10:31N 22°34' E 114°16'0 0.0
2015-May-13 07:31N 22°34' E 114°16'0 0.0
2015-May-13 06:19N 22°34' E 114°16'0 0.1
2015-May-13 04:34N 22°34' E 114°16'20 9.9
2015-May-13 02:33N 22°18' E 114°28'1514.8
2015-May-13 01:31N 22°07' E 114°16'1211.7
2015-May-13 00:32N 22°15' E 114°07'5 4.7
2015-May-12 23:29N 22°20' E 114°08'0 0.0
2015-May-12 22:32N 22°20' E 114°08'0 0.0
2015-May-12 21:32N 22°20' E 114°08'0 0.0
2015-May-12 20:32N 22°20' E 114°08'0 0.0
2015-May-12 19:29N 22°20' E 114°08'0 0.0
2015-May-12 18:32N 22°20' E 114°08'0 0.0
2015-May-12 17:29N 22°20' E 114°08'0 0.0
2015-May-12 16:32N 22°20' E 114°08'0 0.0
2015-May-12 15:32N 22°20' E 114°08'0 0.0
2015-May-12 14:32N 22°20' E 114°08'0 0.0
2015-May-12 13:29N 22°20' E 114°08'0 0.0
2015-May-12 12:32N 22°20' E 114°08'2 2.5
2015-May-12 11:34N 22°18' E 114°06'11 8.8
2015-May-12 10:22N 22°10' E 114°13'1113.1
2015-May-12 09:31N 22°08' E 114°25'1310.1
2015-May-12 08:16N 21°56' E 114°28'0 0.0
2015-May-12 04:06N 21°56' E 114°28'22410.4
2015-May-11 06:28N 22°26' E 118°28'1112.5
2015-May-11 05:33N 22°28' E 118°40'1413.1
2015-May-11 04:29N 22°28' E 118°55'1313.2
2015-May-11 03:28N 22°29' E 119°10'1313.5
2015-May-11 02:33N 22°30' E 119°23'1313.4
2015-May-11 01:33N 22°31' E 119°37'1413.6
2015-May-11 00:31N 22°31' E 119°53'1314.1
2015-May-10 23:33N 22°32' E 120°07'1211.6
2015-May-10 22:33N 22°33' E 120°20'0 0.2
2015-May-10 21:14N 22°33' E 120°20'0 0.0
2015-May-10 20:32N 22°33' E 120°20'0 0.0
2015-May-10 19:32N 22°33' E 120°20'0 0.0
2015-May-10 18:32N 22°33' E 120°20'0 0.0
2015-May-10 16:20N 22°33' E 120°20'0 0.0
2015-May-10 15:26N 22°33' E 120°20'0 0.0
2015-May-10 14:11N 22°33' E 120°20'0 0.0
2015-May-10 13:29N 22°33' E 120°20'0 0.0
2015-May-10 12:29N 22°33' E 120°20'0 0.0
2015-May-10 11:29N 22°33' E 120°20'0 0.0
2015-May-10 10:17N 22°33' E 120°20'0 0.0
2015-May-10 09:29N 22°33' E 120°20'0 0.0
2015-May-10 08:29N 22°33' E 120°20'0 0.0
2015-May-10 07:11N 22°33' E 120°20'0 0.0
2015-May-10 05:33N 22°33' E 120°20'5 4.9
2015-May-10 04:33N 22°31' E 120°15'2 2.4
2015-May-10 03:33N 22°29' E 120°13'1212.0
2015-May-10 02:33N 22°39' E 120°05'1616.0
2015-May-10 01:33N 22°53' E 119°57'  
Track history (hours):
 
Tides and Currents Weather Stations Pressure Air Temp Water Temp Dewpoint Dewpoint Depression Visibility Wind Speed Wind Dir Waves Ship Positions

Ever Develop

Last reported at 2015-May-18 06:33 UTC. Time now 2015-May-25 13:26 UTC.
Position N 30°30' E 122°35'.

Type: Ship (hazmat cat D). MMSI: 356391000.

Date/timePositionNaut miles runAvg speedWind from/ knotsBaromVisibWave heightAir tempDewpointWater temp
2015-May-18 06:33N 30°30' E 122°35'1514.6
2015-May-18 05:33N 30°33' E 122°18'1212.5
2015-May-18 04:33N 30°37' E 122°04'0 0.2
2015-May-18 03:32N 30°37' E 122°04'0 0.0
2015-May-18 02:32N 30°37' E 122°04'0 0.0
2015-May-18 00:32N 30°37' E 122°04'0 0.0
2015-May-17 23:32N 30°37' E 122°04'0 0.0
2015-May-17 22:32N 30°37' E 122°04'0 0.0
2015-May-17 21:32N 30°37' E 122°04'0 0.0
2015-May-17 20:32N 30°37' E 122°04'0 0.0
2015-May-17 19:29N 30°37' E 122°04'0 0.0
2015-May-17 18:17N 30°37' E 122°04'0 0.0
2015-May-17 17:32N 30°37' E 122°04'0 0.0
2015-May-17 16:32N 30°37' E 122°04'0 0.1
2015-May-17 15:33N 30°37' E 122°04'8 8.0
2015-May-17 14:33N 30°34' E 122°13'8 7.9
2015-May-17 13:33N 30°33' E 122°22'11 3.4
2015-May-17 10:25N 30°28' E 122°33'0 0.2
2015-May-17 09:31N 30°28' E 122°33'0 0.0
2015-May-17 08:16N 30°28' E 122°34'0 0.0
2015-May-17 06:16N 30°28' E 122°34'0 0.0
2015-May-17 05:19N 30°28' E 122°34'0 0.2
2015-May-17 04:22N 30°28' E 122°34'0 0.2
2015-May-17 03:28N 30°28' E 122°33'0 0.1
2015-May-17 02:28N 30°28' E 122°33'0 0.0
2015-May-17 01:22N 30°28' E 122°33'0 0.0
2015-May-17 00:28N 30°28' E 122°33'0 0.1
2015-May-16 23:28N 30°28' E 122°33'0 0.2
2015-May-16 22:25N 30°28' E 122°33'0 0.2
2015-May-16 21:31N 30°28' E 122°34'4 4.6
2015-May-16 20:33N 30°27' E 122°39'1212.3
2015-May-16 19:33N 30°23' E 122°52'1312.7
2015-May-16 18:33N 30°15' E 123°04'1312.7
2015-May-16 17:33N 30°03' E 122°59'1514.2
2015-May-16 16:31N 29°53' E 122°47'1313.7
2015-May-16 15:33N 29°42' E 122°38'1414.3
2015-May-16 14:33N 29°43' E 122°21'1212.0
2015-May-16 13:33N 29°52' E 122°11'8 8.3
2015-May-16 12:33N 29°54' E 122°02'0 0.1
2015-May-16 11:32N 29°54' E 122°02'0 0.0
2015-May-16 10:20N 29°54' E 122°02'0 0.0
2015-May-16 09:20N 29°54' E 122°02'0 0.0
2015-May-16 08:08N 29°54' E 122°02'0 0.0
2015-May-16 07:32N 29°54' E 122°02'0 0.0
2015-May-16 05:14N 29°54' E 122°02'0 0.0
2015-May-16 04:26N 29°54' E 122°02'0 0.0
2015-May-16 03:26N 29°54' E 122°02'2 1.7
2015-May-16 02:33N 29°54' E 122°04'9 8.9
2015-May-16 01:33N 29°50' E 122°13'1111.5
2015-May-16 00:33N 29°43' E 122°23'4 0.9
2015-May-15 20:29N 29°39' E 122°24'0 0.0
2015-May-15 18:23N 29°39' E 122°24'2 0.4
2015-May-15 13:33N 29°37' E 122°24'1414.3
2015-May-15 12:33N 29°24' E 122°31'28015.2
2015-May-14 18:08N 25°12' E 120°14'1015.9
2015-May-14 17:31N 25°05' E 120°07'1616.0
2015-May-14 16:30N 24°53' E 119°55'1715.7
2015-May-14 15:24N 24°41' E 119°41'1315.3
2015-May-14 14:33N 24°32' E 119°31'1515.3
2015-May-14 13:33N 24°21' E 119°19'1614.7
2015-May-14 12:29N 24°10' E 119°07'1415.0
2015-May-14 11:33N 24°00' E 118°56'1615.3
2015-May-14 10:31N 23°50' E 118°43'1515.5
2015-May-14 09:33N 23°41' E 118°30'1615.6
2015-May-14 08:33N 23°32' E 118°15'8014.6
2015-May-14 03:05N 22°45' E 117°05'2514.5
2015-May-14 01:23N 22°37' E 116°40'11414.3
2015-May-13 17:24N 22°21' E 114°37'2212.1
2015-May-13 15:33N 22°34' E 114°17'2 1.4
2015-May-13 14:20N 22°34' E 114°16'0 0.0
2015-May-13 13:25N 22°34' E 114°16'0 0.1
2015-May-13 12:31N 22°34' E 114°16'0 0.0
2015-May-13 11:07N 22°34' E 114°16'0 0.0
2015-May-13 10:31N 22°34' E 114°16'0 0.0
2015-May-13 07:31N 22°34' E 114°16'0 0.0
2015-May-13 06:19N 22°34' E 114°16'0 0.1
2015-May-13 04:34N 22°34' E 114°16'20 9.9
2015-May-13 02:33N 22°18' E 114°28'1514.8
2015-May-13 01:31N 22°07' E 114°16'1211.7
2015-May-13 00:32N 22°15' E 114°07'5 4.7
2015-May-12 23:29N 22°20' E 114°08'0 0.0
2015-May-12 22:32N 22°20' E 114°08'0 0.0
2015-May-12 21:32N 22°20' E 114°08'0 0.0
2015-May-12 20:32N 22°20' E 114°08'0 0.0
2015-May-12 19:29N 22°20' E 114°08'0 0.0
2015-May-12 18:32N 22°20' E 114°08'0 0.0
2015-May-12 17:29N 22°20' E 114°08'0 0.0
2015-May-12 16:32N 22°20' E 114°08'0 0.0
2015-May-12 15:32N 22°20' E 114°08'0 0.0
2015-May-12 14:32N 22°20' E 114°08'0 0.0
2015-May-12 13:29N 22°20' E 114°08'0 0.0
2015-May-12 12:32N 22°20' E 114°08'2 2.5
2015-May-12 11:34N 22°18' E 114°06'11 8.8
2015-May-12 10:22N 22°10' E 114°13'1113.1
2015-May-12 09:31N 22°08' E 114°25'1310.1
2015-May-12 08:16N 21°56' E 114°28'0 0.0
2015-May-12 04:06N 21°56' E 114°28'22410.4
2015-May-11 06:28N 22°26' E 118°28'1112.5
2015-May-11 05:33N 22°28' E 118°40'1413.1
2015-May-11 04:29N 22°28' E 118°55'1313.2
2015-May-11 03:28N 22°29' E 119°10'1313.5
2015-May-11 02:33N 22°30' E 119°23'1313.4
2015-May-11 01:33N 22°31' E 119°37'1413.6
2015-May-11 00:31N 22°31' E 119°53'1314.1
2015-May-10 23:33N 22°32' E 120°07'1211.6
2015-May-10 22:33N 22°33' E 120°20'0 0.2
2015-May-10 21:14N 22°33' E 120°20'0 0.0
2015-May-10 20:32N 22°33' E 120°20'0 0.0
2015-May-10 19:32N 22°33' E 120°20'0 0.0
2015-May-10 18:32N 22°33' E 120°20'0 0.0
2015-May-10 16:20N 22°33' E 120°20'0 0.0
2015-May-10 15:26N 22°33' E 120°20'0 0.0
2015-May-10 14:11N 22°33' E 120°20'0 0.0
2015-May-10 13:29N 22°33' E 120°20'0 0.0
2015-May-10 12:29N 22°33' E 120°20'0 0.0
2015-May-10 11:29N 22°33' E 120°20'0 0.0
2015-May-10 10:17N 22°33' E 120°20'0 0.0
2015-May-10 09:29N 22°33' E 120°20'0 0.0
2015-May-10 08:29N 22°33' E 120°20'0 0.0
2015-May-10 07:11N 22°33' E 120°20'0 0.0
2015-May-10 05:33N 22°33' E 120°20'5 4.9
2015-May-10 04:33N 22°31' E 120°15'2 2.4
2015-May-10 03:33N 22°29' E 120°13'1212.0
2015-May-10 02:33N 22°39' E 120°05'1616.0
2015-May-10 01:33N 22°53' E 119°57'  

Dump ship's entire track history